createdAt,value
2018-01-08T00:02:14.589Z,76.02
2018-01-08T00:04:42.961Z,80.07
2018-01-08T00:07:11.442Z,78.57
2018-01-08T00:09:39.806Z,76.10
2018-01-08T00:12:08.173Z,76.58
2018-01-08T00:14:36.526Z,72.33
2018-01-08T00:17:04.922Z,78.99
2018-01-08T00:19:33.326Z,76.92
2018-01-08T00:22:01.712Z,77.22
2018-01-08T00:24:30.083Z,79.90
2018-01-08T00:26:58.659Z,80.43
2018-01-08T00:29:27.029Z,77.89
2018-01-08T00:31:55.379Z,78.38
2018-01-08T00:34:23.794Z,76.78
2018-01-08T00:36:52.155Z,74.06
2018-01-08T00:39:20.524Z,75.46
2018-01-08T00:41:48.894Z,76.55
2018-01-08T00:44:17.300Z,77.30
2018-01-08T00:46:45.679Z,77.57
2018-01-08T00:49:14.049Z,78.98
2018-01-08T00:51:42.420Z,81.38
2018-01-08T00:54:10.785Z,73.70
2018-01-08T00:56:39.182Z,76.51
2018-01-08T00:59:07.556Z,74.34
2018-01-08T01:01:35.950Z,75.77
2018-01-08T01:04:04.327Z,75.75
2018-01-08T01:06:32.699Z,75.69
2018-01-08T01:09:01.060Z,76.33
2018-01-08T01:11:29.419Z,77.00
2018-01-08T01:13:57.818Z,78.70
2018-01-08T01:16:26.169Z,78.96
2018-01-08T01:18:54.536Z,80.42
2018-01-08T01:21:22.897Z,77.58
2018-01-08T01:23:51.256Z,79.22
2018-01-08T01:26:19.640Z,73.90
2018-01-08T01:28:47.996Z,76.88
2018-01-08T01:31:16.524Z,77.42
2018-01-08T01:33:44.874Z,75.60
2018-01-08T01:36:13.240Z,75.85
2018-01-08T01:38:41.620Z,76.73
2018-01-08T01:41:09.988Z,74.99
2018-01-08T01:43:38.371Z,78.41
2018-01-08T01:46:06.731Z,76.31
2018-01-08T01:48:35.093Z,79.00
2018-01-08T01:51:03.447Z,78.06
2018-01-08T01:53:31.804Z,75.25
2018-01-08T01:56:00.170Z,77.26
2018-01-08T01:58:28.538Z,77.30
2018-01-08T02:00:56.897Z,82.38
2018-01-08T02:03:25.291Z,77.23
2018-01-08T02:05:53.661Z,79.12
2018-01-08T02:08:22.027Z,76.53
2018-01-08T02:10:50.455Z,77.19
2018-01-08T02:13:18.800Z,78.91
2018-01-08T02:15:47.208Z,77.64
2018-01-08T02:18:15.559Z,78.83
2018-01-08T02:20:43.936Z,79.91
2018-01-08T02:23:12.311Z,76.72
2018-01-08T02:25:40.703Z,74.43
2018-01-08T02:28:09.055Z,75.86
2018-01-08T02:30:37.439Z,77.00
2018-01-08T02:33:05.825Z,75.86
2018-01-08T02:35:34.185Z,76.87
2018-01-08T02:38:02.576Z,78.18
2018-01-08T02:40:30.927Z,76.75
2018-01-08T02:42:59.284Z,73.58
2018-01-08T02:45:27.671Z,75.63
2018-01-08T02:47:56.030Z,73.23
2018-01-08T02:50:24.431Z,76.38
2018-01-08T02:52:52.805Z,77.21
2018-01-08T02:55:21.181Z,75.07
2018-01-08T02:57:49.536Z,75.75
2018-01-08T03:00:17.887Z,75.53
2018-01-08T03:02:46.256Z,76.24
2018-01-08T03:05:14.621Z,75.65
2018-01-08T03:07:42.983Z,76.54
2018-01-08T03:10:11.359Z,75.83
2018-01-08T03:12:39.730Z,77.86
2018-01-08T03:15:08.110Z,78.15
2018-01-08T03:17:36.473Z,78.56
2018-01-08T03:20:04.839Z,74.43
2018-01-08T03:22:33.215Z,76.13
2018-01-08T03:25:01.612Z,76.64
2018-01-08T03:27:29.985Z,75.11
2018-01-08T03:29:58.331Z,76.99
2018-01-08T03:32:26.710Z,76.79
2018-01-08T03:34:55.080Z,75.95
2018-01-08T03:37:23.467Z,76.34
2018-01-08T03:39:51.820Z,79.01
2018-01-08T03:42:20.188Z,73.70
2018-01-08T03:44:48.571Z,75.14
2018-01-08T03:47:16.927Z,74.92
2018-01-08T03:49:45.341Z,74.10
2018-01-08T03:52:13.729Z,72.30
2018-01-08T03:54:42.090Z,73.80
2018-01-08T03:57:10.451Z,72.93
2018-01-08T03:59:38.819Z,75.17
2018-01-08T04:02:07.180Z,74.14
2018-01-08T04:04:35.583Z,76.19
2018-01-08T04:07:04.627Z,77.44
2018-01-08T04:09:32.991Z,75.37
2018-01-08T04:12:01.355Z,73.94
2018-01-08T04:14:29.829Z,78.13
2018-01-08T04:16:58.259Z,75.84
2018-01-08T04:19:26.620Z,77.86
2018-01-08T04:21:54.989Z,77.88
2018-01-08T04:24:23.346Z,76.43
2018-01-08T04:26:51.794Z,78.15
2018-01-08T04:29:20.205Z,76.76
2018-01-08T04:31:48.568Z,73.55
2018-01-08T04:34:16.951Z,78.39
2018-01-08T04:36:45.308Z,76.96
2018-01-08T04:39:13.675Z,76.69
2018-01-08T04:41:42.067Z,77.92
2018-01-08T04:44:10.430Z,77.95
2018-01-08T04:46:38.788Z,75.83
2018-01-08T04:49:07.142Z,77.21
2018-01-08T04:51:35.501Z,76.19
2018-01-08T04:54:03.884Z,72.86
2018-01-08T04:56:32.266Z,76.12
2018-01-08T04:59:00.638Z,77.15
2018-01-08T05:01:29.117Z,77.18
2018-01-08T05:03:57.469Z,75.78
2018-01-08T05:06:25.866Z,74.94
2018-01-08T05:08:54.220Z,76.49
2018-01-08T05:11:22.571Z,78.97
2018-01-08T05:13:50.947Z,75.51
2018-01-08T05:16:19.311Z,74.95
2018-01-08T05:18:47.698Z,77.76
2018-01-08T05:21:16.056Z,78.42
2018-01-08T05:23:44.421Z,76.41
2018-01-08T05:26:12.791Z,77.34
2018-01-08T05:28:41.171Z,76.50
2018-01-08T05:31:09.563Z,77.43
2018-01-08T05:33:37.917Z,75.53
2018-01-08T05:36:06.274Z,76.90
2018-01-08T05:38:34.628Z,75.70
2018-01-08T05:41:02.988Z,74.50
2018-01-08T05:43:31.376Z,76.27
2018-01-08T05:45:59.741Z,79.22
2018-01-08T05:48:28.111Z,77.03
2018-01-08T05:50:56.463Z,77.69
2018-01-08T05:53:24.818Z,77.45
2018-01-08T05:55:53.315Z,78.36
2018-01-08T05:58:21.680Z,77.07
2018-01-08T06:00:50.049Z,76.60
2018-01-08T06:03:18.429Z,76.74
2018-01-08T06:05:46.772Z,77.12
2018-01-08T06:08:15.172Z,77.96
2018-01-08T06:10:43.526Z,74.21
2018-01-08T06:13:11.911Z,77.14
2018-01-08T06:15:40.269Z,75.17
2018-01-08T06:18:08.629Z,76.82
2018-01-08T06:20:37.021Z,75.59
2018-01-08T06:23:05.367Z,72.66
2018-01-08T06:25:33.738Z,76.60
2018-01-08T06:28:02.096Z,72.81
2018-01-08T06:30:30.456Z,74.87
2018-01-08T06:32:58.940Z,74.55
2018-01-08T06:35:27.352Z,75.51
2018-01-08T06:37:55.703Z,71.61
2018-01-08T06:40:24.152Z,72.12
2018-01-08T06:42:52.525Z,72.68
2018-01-08T06:45:20.897Z,71.60
2018-01-08T06:47:49.293Z,74.25
2018-01-08T06:50:17.659Z,72.80
2018-01-08T06:52:46.031Z,73.84
2018-01-08T06:55:14.390Z,75.92
2018-01-08T06:57:42.749Z,75.31
2018-01-08T07:00:11.132Z,73.13
2018-01-08T07:02:39.524Z,70.14
2018-01-08T07:05:07.880Z,72.89
2018-01-08T07:07:36.260Z,73.01
2018-01-08T07:10:04.617Z,71.48
2018-01-08T07:12:33.004Z,70.72
2018-01-08T07:15:01.403Z,74.19
2018-01-08T07:17:29.872Z,75.49
2018-01-08T07:19:58.218Z,74.04
2018-01-08T07:22:26.574Z,73.24
2018-01-08T07:24:54.979Z,73.65
2018-01-08T07:27:23.342Z,73.94
2018-01-08T07:29:52.611Z,74.08
2018-01-08T07:32:20.964Z,71.25
2018-01-08T07:34:49.330Z,72.21
2018-01-08T07:37:17.730Z,72.58
2018-01-08T07:39:46.096Z,77.31
2018-01-08T07:42:14.466Z,76.12
2018-01-08T07:44:42.982Z,75.58
2018-01-08T07:47:11.344Z,75.59
2018-01-08T07:49:40.007Z,75.00
2018-01-08T07:52:08.384Z,74.02
2018-01-08T07:54:36.745Z,74.27
2018-01-08T07:57:05.102Z,74.17
2018-01-08T07:59:33.464Z,74.83
2018-01-08T08:02:01.868Z,74.11
2018-01-08T08:04:30.213Z,76.07
2018-01-08T08:06:58.579Z,74.03
2018-01-08T08:09:26.945Z,72.48
2018-01-08T08:11:55.303Z,71.14
2018-01-08T08:14:28.569Z,72.37
2018-01-08T08:16:57.825Z,74.77
2018-01-08T08:19:26.192Z,72.47
2018-01-08T08:21:54.575Z,69.48
2018-01-08T08:24:22.939Z,72.56
2018-01-08T08:26:51.452Z,75.35
2018-01-08T08:29:19.834Z,74.55
2018-01-08T08:31:48.200Z,70.80
2018-01-08T08:34:16.596Z,70.57
2018-01-08T08:36:44.953Z,69.47
2018-01-08T08:39:13.347Z,69.96
2018-01-08T08:41:41.708Z,69.85
2018-01-08T08:44:10.067Z,71.03
2018-01-08T08:46:38.425Z,69.36
2018-01-08T08:49:06.799Z,70.45
2018-01-08T08:51:35.208Z,72.57
2018-01-08T08:54:03.556Z,72.35
2018-01-08T08:56:31.927Z,73.06
2018-01-08T08:59:00.271Z,72.85
2018-01-08T09:01:28.704Z,72.09
2018-01-08T09:03:57.194Z,73.04
2018-01-08T09:06:25.585Z,71.65
2018-01-08T09:08:53.935Z,75.49
2018-01-08T09:11:22.314Z,74.36
2018-01-08T09:13:50.668Z,73.64
2018-01-08T09:16:19.168Z,73.88
2018-01-08T09:18:47.565Z,75.94
2018-01-08T09:21:15.923Z,74.74
2018-01-08T09:23:44.307Z,72.72
2018-01-08T09:26:12.727Z,72.24
2018-01-08T09:28:41.061Z,70.82
2018-01-08T09:31:09.619Z,69.36
2018-01-08T09:33:38.033Z,70.14
2018-01-08T09:36:06.457Z,71.33
2018-01-08T09:38:34.850Z,70.05
2018-01-08T09:41:03.264Z,70.39
2018-01-08T09:43:31.629Z,71.80
2018-01-08T09:46:00.025Z,72.94
2018-01-08T09:48:28.474Z,76.20
2018-01-08T09:50:56.849Z,73.31
2018-01-08T09:53:25.208Z,67.47
2018-01-08T09:55:53.619Z,72.25
2018-01-08T09:58:21.986Z,70.60
2018-01-08T10:00:50.405Z,72.03
2018-01-08T10:03:30.439Z,72.05
2018-01-08T10:06:16.500Z,70.76
2018-01-08T10:09:02.544Z,75.00
2018-01-08T10:11:48.616Z,74.59
2018-01-08T10:14:34.625Z,71.98
2018-01-08T10:17:20.624Z,74.41
2018-01-08T10:19:59.803Z,75.51
2018-01-08T10:22:27.886Z,75.46
2018-01-08T10:24:56.232Z,72.42
2018-01-08T10:27:24.620Z,74.81
2018-01-08T10:29:53.046Z,71.79
2018-01-08T10:32:21.432Z,72.45
2018-01-08T10:34:49.847Z,73.04
2018-01-08T10:37:18.213Z,74.76
2018-01-08T10:39:46.664Z,72.57
2018-01-08T10:42:20.706Z,70.69
2018-01-08T10:44:54.632Z,71.32
2018-01-08T10:47:28.596Z,71.49
2018-01-08T10:50:02.594Z,72.36
2018-01-08T10:52:30.955Z,68.27
2018-01-08T10:55:08.809Z,71.88
2018-01-08T10:57:37.221Z,71.14
2018-01-08T11:00:05.572Z,72.57
2018-01-08T11:02:39.465Z,70.88
2018-01-08T11:05:07.832Z,71.66
2018-01-08T11:07:36.245Z,71.81
2018-01-08T11:10:04.669Z,70.69
2018-01-08T11:12:33.031Z,70.35
2018-01-08T11:15:01.428Z,71.08
2018-01-08T11:17:29.820Z,68.73
2018-01-08T11:19:58.179Z,72.49
2018-01-08T11:22:26.619Z,72.07
2018-01-08T11:24:54.972Z,74.81
2018-01-08T11:27:23.356Z,67.99
2018-01-08T11:29:51.762Z,73.16
2018-01-08T11:32:20.124Z,67.61
2018-01-08T11:34:48.531Z,69.11
2018-01-08T11:37:16.934Z,69.34
2018-01-08T11:39:45.289Z,68.91
2018-01-08T11:42:13.689Z,70.84
2018-01-08T11:44:42.060Z,67.44
2018-01-08T11:47:10.569Z,71.72
2018-01-08T11:49:38.952Z,67.93
2018-01-08T11:52:07.342Z,69.48
2018-01-08T11:54:35.749Z,67.08
2018-01-08T11:57:04.116Z,67.11
2018-01-08T11:59:32.490Z,69.17
2018-01-08T12:02:00.990Z,67.80
2018-01-08T12:04:29.361Z,67.64
2018-01-08T12:06:57.718Z,67.06
2018-01-08T12:09:26.096Z,67.17
2018-01-08T12:11:54.462Z,65.42
2018-01-08T12:14:22.890Z,68.41
2018-01-08T12:16:51.288Z,65.32
2018-01-08T12:19:19.672Z,65.51
2018-01-08T12:21:48.045Z,67.49
2018-01-08T12:24:16.484Z,66.57
2018-01-08T12:26:44.997Z,67.25
2018-01-08T12:29:13.357Z,66.77
2018-01-08T12:31:41.756Z,65.42
2018-01-08T12:34:10.118Z,67.21
2018-01-08T12:36:38.651Z,66.09
2018-01-08T12:39:07.036Z,68.10
2018-01-08T12:41:35.406Z,65.60
2018-01-08T12:44:03.757Z,65.52
2018-01-08T12:46:32.142Z,64.73
2018-01-08T12:49:00.514Z,66.80
2018-01-08T12:51:28.906Z,65.15
2018-01-08T12:53:57.264Z,69.97
2018-01-08T12:56:25.687Z,65.28
2018-01-08T12:58:54.063Z,66.11
2018-01-08T13:01:22.418Z,67.11
2018-01-08T13:03:50.807Z,65.19
2018-01-08T13:06:19.237Z,66.90
2018-01-08T13:08:47.604Z,63.89
2018-01-08T13:11:15.966Z,67.81
2018-01-08T13:13:44.333Z,64.57
2018-01-08T13:16:12.696Z,64.69
2018-01-08T13:18:41.095Z,66.16
2018-01-08T13:21:09.462Z,64.03
2018-01-08T13:23:37.952Z,66.08
2018-01-08T13:26:06.343Z,65.41
2018-01-08T13:28:34.706Z,69.20
2018-01-08T13:31:03.116Z,65.67
2018-01-08T13:33:31.510Z,65.08
2018-01-08T13:35:59.904Z,62.63
2018-01-08T13:38:28.268Z,63.53
2018-01-08T13:40:56.662Z,66.28
2018-01-08T13:43:25.038Z,65.00
2018-01-08T13:45:53.390Z,64.72
2018-01-08T13:48:21.746Z,66.60
2018-01-08T13:50:50.095Z,63.10
2018-01-08T13:53:18.480Z,65.44
2018-01-08T13:55:46.839Z,65.73
2018-01-08T13:58:15.216Z,67.20
2018-01-08T14:00:43.607Z,67.01
2018-01-08T14:03:11.982Z,66.84
2018-01-08T14:05:40.400Z,67.21
2018-01-08T14:08:08.811Z,68.86
2018-01-08T14:10:37.186Z,67.66
2018-01-08T14:13:05.560Z,67.50
2018-01-08T14:15:33.970Z,67.07
2018-01-08T14:18:02.411Z,68.16
2018-01-08T14:20:30.771Z,68.20
2018-01-08T14:22:59.136Z,68.52
2018-01-08T14:25:27.504Z,67.92
2018-01-08T14:27:55.874Z,67.38
2018-01-08T14:30:24.327Z,68.44
2018-01-08T14:32:52.728Z,66.45
2018-01-08T14:35:21.095Z,70.32
2018-01-08T14:37:49.454Z,70.04
2018-01-08T14:40:17.953Z,70.79
2018-01-08T14:42:46.319Z,71.04
2018-01-08T14:45:14.696Z,71.90
2018-01-08T14:47:43.104Z,71.01
2018-01-08T14:50:11.468Z,68.33
2018-01-08T14:52:39.863Z,70.39
2018-01-08T14:55:08.231Z,69.84
2018-01-08T14:57:36.595Z,67.75
2018-01-08T15:00:04.967Z,71.69
2018-01-08T15:02:33.337Z,69.85
2018-01-08T15:05:01.763Z,73.12
2018-01-08T15:07:30.129Z,70.72
2018-01-08T15:09:58.509Z,69.01
2018-01-08T15:12:26.876Z,68.88
2018-01-08T15:14:55.283Z,73.43
2018-01-08T15:17:23.792Z,71.63
2018-01-08T15:19:52.151Z,69.81
2018-01-08T15:22:20.518Z,70.71
2018-01-08T15:24:48.966Z,74.17
2018-01-08T15:27:17.342Z,71.84
2018-01-08T15:29:45.697Z,69.87
2018-01-08T15:32:14.080Z,65.81
2018-01-08T15:34:42.440Z,66.15
2018-01-08T15:37:10.840Z,66.95
2018-01-08T15:39:39.201Z,69.80
2018-01-08T15:42:07.563Z,69.14
2018-01-08T15:44:35.935Z,70.58
2018-01-08T15:47:04.303Z,66.45
2018-01-08T15:49:32.800Z,69.92
2018-01-08T15:52:01.212Z,68.54
2018-01-08T15:54:29.581Z,68.87
2018-01-08T15:56:57.962Z,65.94
2018-01-08T15:59:26.323Z,66.46
2018-01-08T16:01:54.803Z,64.35
2018-01-08T16:04:23.165Z,67.71
2018-01-08T16:06:51.556Z,66.13
2018-01-08T16:11:47.403Z,67.41
2018-01-08T16:14:15.892Z,70.20
2018-01-08T16:16:44.243Z,68.98
2018-01-08T16:19:12.647Z,69.28
2018-01-08T16:21:41.019Z,73.05
2018-01-08T16:24:09.387Z,68.87
2018-01-08T16:26:37.777Z,70.31
2018-01-08T16:29:06.139Z,72.57
2018-01-08T16:31:34.494Z,71.41
2018-01-08T16:34:02.857Z,71.10
2018-01-08T16:36:31.204Z,71.22
2018-01-08T16:38:59.600Z,70.53
2018-01-08T16:41:27.958Z,70.55
2018-01-08T16:43:56.312Z,67.57
2018-01-08T16:46:24.790Z,67.14
2018-01-08T16:48:53.159Z,70.79
2018-01-08T16:51:21.563Z,69.38
2018-01-08T16:53:49.932Z,71.22
2018-01-08T16:56:18.311Z,69.85
2018-01-08T16:58:46.668Z,73.87
2018-01-08T17:01:15.028Z,70.88
2018-01-08T17:03:43.438Z,69.06
2018-01-08T17:06:11.879Z,72.25
2018-01-08T17:08:40.320Z,70.72
2018-01-08T17:11:08.683Z,69.20
2018-01-08T17:13:37.045Z,69.62
2018-01-08T17:16:05.431Z,72.83
2018-01-08T17:18:33.800Z,73.96
2018-01-08T17:21:02.179Z,73.44
2018-01-08T17:23:30.569Z,70.94
2018-01-08T17:25:58.915Z,70.40
2018-01-08T17:28:27.323Z,72.71
2018-01-08T17:30:55.698Z,72.61
2018-01-08T17:33:24.047Z,75.19
2018-01-08T17:35:52.466Z,72.16
2018-01-08T17:38:20.848Z,75.31
2018-01-08T17:40:49.353Z,72.74
2018-01-08T17:43:17.731Z,75.08
2018-01-08T17:45:46.099Z,72.05
2018-01-08T17:48:14.479Z,70.20
2018-01-08T17:50:42.835Z,75.15
2018-01-08T17:53:11.358Z,71.41
2018-01-08T17:55:39.780Z,72.25
2018-01-08T17:58:08.202Z,69.88
2018-01-08T18:00:37.450Z,74.06
2018-01-08T18:03:05.826Z,73.58
2018-01-08T18:05:34.207Z,72.96
2018-01-08T18:08:02.563Z,72.53
2018-01-08T18:10:30.914Z,73.83
2018-01-08T18:12:59.286Z,74.18
2018-01-08T18:15:27.689Z,73.09
2018-01-08T18:17:56.081Z,74.27
2018-01-08T18:20:24.504Z,71.59
2018-01-08T18:22:52.875Z,71.43
2018-01-08T18:25:21.285Z,72.45
2018-01-08T18:27:49.692Z,73.75
2018-01-08T18:30:18.107Z,72.94
2018-01-08T18:32:46.481Z,71.67
2018-01-08T18:35:14.843Z,72.89
2018-01-08T18:37:43.250Z,74.05
2018-01-08T18:40:11.628Z,72.74
2018-01-08T18:42:40.034Z,73.35
2018-01-08T18:45:08.392Z,71.24
2018-01-08T18:47:36.745Z,74.96
2018-01-08T18:50:05.214Z,73.77
2018-01-08T18:52:33.708Z,75.28
2018-01-08T18:55:02.109Z,75.14
2018-01-08T18:57:30.446Z,72.99
2018-01-08T18:59:58.824Z,72.86
2018-01-08T19:02:27.198Z,77.78
2018-01-08T19:04:55.580Z,71.47
2018-01-08T19:07:23.963Z,74.58
2018-01-08T19:09:52.328Z,74.83
2018-01-08T19:12:20.695Z,76.73
2018-01-08T19:14:49.080Z,72.79
2018-01-08T19:17:17.439Z,74.28
2018-01-08T19:19:45.854Z,76.66
2018-01-08T19:22:14.220Z,74.81
2018-01-08T19:24:42.581Z,76.33
2018-01-08T19:27:10.940Z,75.45
2018-01-08T19:29:39.289Z,72.07
2018-01-08T19:32:07.717Z,72.07
2018-01-08T19:34:36.116Z,73.86
2018-01-08T19:37:04.499Z,73.47
2018-01-08T19:39:32.887Z,75.10
2018-01-08T19:42:01.259Z,74.41
2018-01-08T19:44:29.756Z,73.88
2018-01-08T19:46:58.123Z,72.60
2018-01-08T19:49:26.487Z,74.41
2018-01-08T19:51:54.848Z,74.81
2018-01-08T19:54:23.236Z,72.14
2018-01-08T19:56:51.653Z,73.39
2018-01-08T19:59:20.015Z,75.12
2018-01-08T20:01:48.371Z,72.42
2018-01-08T20:04:16.745Z,73.58
2018-01-08T20:06:45.125Z,75.65
2018-01-08T20:09:13.519Z,72.90
2018-01-08T20:11:42.788Z,76.08
2018-01-08T20:14:11.154Z,73.82
2018-01-08T20:16:39.589Z,73.39
2018-01-08T20:19:07.972Z,72.96
2018-01-08T20:21:36.419Z,73.95
2018-01-08T20:24:04.827Z,77.07
2018-01-08T20:26:33.198Z,74.03
2018-01-08T20:29:01.555Z,75.10
2018-01-08T20:31:29.935Z,73.45
2018-01-08T20:33:58.339Z,74.97
2018-01-08T20:36:26.683Z,74.27
2018-01-08T20:38:55.046Z,75.25
2018-01-08T20:41:23.432Z,76.60
2018-01-08T20:43:51.793Z,71.59
2018-01-08T20:46:20.152Z,73.67
2018-01-08T20:48:48.631Z,76.13
2018-01-08T20:51:17.041Z,75.98
2018-01-08T20:53:45.412Z,72.83
2018-01-08T20:56:13.819Z,71.92
2018-01-08T20:58:42.168Z,75.43
2018-01-08T21:01:10.540Z,73.06
2018-01-08T21:03:39.263Z,72.47
2018-01-08T21:06:07.843Z,77.19
2018-01-08T21:08:36.196Z,74.74
2018-01-08T21:11:04.645Z,74.21
2018-01-08T21:13:33.007Z,73.27
2018-01-08T21:16:01.366Z,76.57
2018-01-08T21:18:29.723Z,73.48
2018-01-08T21:20:58.072Z,76.39
2018-01-08T21:23:26.467Z,75.13
2018-01-08T21:25:54.871Z,74.64
2018-01-08T21:28:23.234Z,72.35
2018-01-08T21:30:51.593Z,74.27
2018-01-08T21:33:19.947Z,72.82
2018-01-08T21:35:48.375Z,72.58
2018-01-08T21:38:16.728Z,72.51
2018-01-08T21:40:45.104Z,75.56
2018-01-08T21:43:13.470Z,78.16
2018-01-08T21:45:41.854Z,73.60
2018-01-08T21:48:10.265Z,73.34
2018-01-08T21:50:38.635Z,73.75
2018-01-08T21:53:07.227Z,77.90
2018-01-08T21:55:35.584Z,70.78
2018-01-08T21:58:04.092Z,74.39
2018-01-08T22:00:32.606Z,73.65
2018-01-08T22:03:00.967Z,74.21
2018-01-08T22:05:29.332Z,72.09
2018-01-08T22:07:57.704Z,72.29
2018-01-08T22:10:26.055Z,75.23
2018-01-08T22:12:54.902Z,73.66
2018-01-08T22:15:23.309Z,71.86
2018-01-08T22:17:51.688Z,72.62
2018-01-08T22:20:20.117Z,74.80
2018-01-08T22:22:48.503Z,77.56
2018-01-08T22:25:16.991Z,77.32
2018-01-08T22:27:45.395Z,77.80
2018-01-08T22:30:13.762Z,78.64
2018-01-08T22:32:42.121Z,73.03
2018-01-08T22:35:10.559Z,71.65
2018-01-08T22:37:39.146Z,75.38
2018-01-08T22:40:07.539Z,76.97
2018-01-08T22:42:36.008Z,77.30
2018-01-08T22:45:04.407Z,75.07
2018-01-08T22:47:32.763Z,76.44
2018-01-08T22:50:01.124Z,77.33
2018-01-08T22:52:29.483Z,77.46
2018-01-08T22:54:57.847Z,77.46
2018-01-08T22:57:26.334Z,77.90
2018-01-08T22:59:54.687Z,77.37
2018-01-08T23:02:23.045Z,79.28
2018-01-08T23:04:51.408Z,76.82
2018-01-08T23:07:19.761Z,78.58
2018-01-08T23:09:48.161Z,77.33
2018-01-08T23:12:16.533Z,82.06
2018-01-08T23:14:44.904Z,77.52
2018-01-08T23:17:13.265Z,75.31
2018-01-08T23:19:41.651Z,76.14
2018-01-08T23:22:10.051Z,74.97
2018-01-08T23:24:38.403Z,76.60
2018-01-08T23:27:06.785Z,79.14
2018-01-08T23:29:35.167Z,76.93
2018-01-08T23:32:03.536Z,78.00
2018-01-08T23:34:31.942Z,76.87
2018-01-08T23:37:00.312Z,74.40
2018-01-08T23:39:28.684Z,75.26
2018-01-08T23:41:57.062Z,79.81
2018-01-08T23:44:25.460Z,81.42
2018-01-08T23:46:53.811Z,79.13
2018-01-08T23:49:22.182Z,77.25
2018-01-08T23:51:50.633Z,78.47
2018-01-08T23:54:22.698Z,79.10
2018-01-08T23:56:51.106Z,75.32
2018-01-08T23:59:19.468Z,75.62
